Terminal Aerodrome Forecast
Issued by NWS Wichita, KS

Home | Current Version | Previous Version | Graphics & Text | Print | Product List | Glossary On
Versions: 1 2 3 4 5 6 7 8 9 10 11 12 13 14
137
FTUS43 KICT 080529
TAFICT
TAF
KICT 080529Z 0806/0906 31017G24KT P6SM SKC
     FM081500 33025G33KT P6SM FEW250
     FM081700 33030G37KT P6SM SCT250
     FM090000 33016G23KT P6SM SKC=

USA.gov is the U.S. government's official web portal to all federal, state and local government web resources and services.